Wetterdaten: aktuell Sonntag, 06.09.2026 19:06
Datum Zeit Temp. A. Feuchte A. Luftdruck Regen Wind Richtung Richtung Taupunkt Windchill
06.09.2026 19:06 24,9 °C 20 % 1015,9 hPa 0,0 l/m² 4,2 km/h (1 Bft) O-SO±22.5° 120 ° 0,4 °C 24,9 °C
06.09.2026 19:05 24,9 °C 20 % 1015,9 hPa 0,0 l/m² 0,6 km/h (0 Bft) O-SO 115 ° 0,4 °C 24,9 °C
06.09.2026 19:03 25,0 °C 20 % 1015,9 hPa 0,0 l/m² 2,2 km/h (1 Bft) O-SO 120 ° 0,5 °C 25,0 °C
06.09.2026 19:01 25,0 °C 20 % 1015,9 hPa 0,0 l/m² 0,5 km/h (0 Bft) SO 135 ° 0,5 °C 25,0 °C
06.09.2026 18:59 25,0 °C 20 % 1015,9 hPa 0,0 l/m² 0,5 km/h (0 Bft) SO 135 ° 0,5 °C 25,0 °C
06.09.2026 18:57 25,0 °C 20 % 1015,9 hPa 0,0 l/m² 0,0 km/h (0 Bft) SO 140 ° 0,5 °C 25,0 °C
06.09.2026 18:55 25,0 °C 20 % 1015,9 hPa 0,0 l/m² 0,5 km/h (0 Bft) SO 140 ° 0,5 °C 25,0 °C
06.09.2026 18:53 25,1 °C 20 % 1015,9 hPa 0,0 l/m² 0,9 km/h (0 Bft) SO 140 ° 0,6 °C 25,1 °C
06.09.2026 18:51 25,1 °C 20 % 1015,9 hPa 0,0 l/m² 0,9 km/h (0 Bft) SO 140 ° 0,6 °C 25,1 °C
06.09.2026 18:49 25,1 °C 20 % 1015,9 hPa 0,0 l/m² 5,2 km/h (1 Bft) SO 145 ° 0,6 °C 25,1 °C
06.09.2026 18:47 25,2 °C 20 % 1015,9 hPa 0,0 l/m² 3,6 km/h (1 Bft) S-SO 150 ° 0,6 °C 25,2 °C
06.09.2026 18:45 25,1 °C 20 % 1015,9 hPa 0,0 l/m² 3,6 km/h (1 Bft) S-SO 150 ° 0,6 °C 25,1 °C
06.09.2026 18:43 25,1 °C 20 % 1015,9 hPa 0,0 l/m² 8,0 km/h (2 Bft) SO 140 ° 0,6 °C 24,7 °C
06.09.2026 18:41 25,2 °C 20 % 1015,9 hPa 0,0 l/m² 4,6 km/h (1 Bft) SO±22.5° 125 ° 0,6 °C 25,2 °C
06.09.2026 18:38 25,1 °C 20 % 1015,9 hPa 0,0 l/m² 7,8 km/h (2 Bft) SO 130 ° 0,6 °C 24,8 °C
06.09.2026 18:36 25,1 °C 20 % 1015,9 hPa 0,0 l/m² 7,8 km/h (2 Bft) SO 130 ° 0,6 °C 24,8 °C
06.09.2026 18:34 25,2 °C 20 % 1015,9 hPa 0,0 l/m² 0,6 km/h (0 Bft) S-SO 150 ° 0,6 °C 25,2 °C
06.09.2026 18:32 25,2 °C 20 % 1015,9 hPa 0,0 l/m² 6,0 km/h (2 Bft) S-SO 150 ° 0,6 °C 25,2 °C
06.09.2026 18:30 25,2 °C 20 % 1015,9 hPa 0,0 l/m² 1,9 km/h (1 Bft) SO±22.5° 130 ° 0,6 °C 25,2 °C
06.09.2026 18:28 25,2 °C 20 % 1015,9 hPa 0,0 l/m² 1,9 km/h (1 Bft) SO±22.5° 130 ° 0,6 °C 25,2 °C
06.09.2026 18:26 25,1 °C 20 % 1015,9 hPa 0,0 l/m² 6,3 km/h (2 Bft) SO±22.5° 130 ° 0,6 °C 25,1 °C
06.09.2026 18:25 25,1 °C 20 % 1015,9 hPa 0,0 l/m² 8,9 km/h (2 Bft) S-SO±22.5° 150 ° 0,6 °C 24,5 °C
06.09.2026 18:23 25,2 °C 20 % 1015,9 hPa 0,0 l/m² 8,9 km/h (2 Bft) S-SO±22.5° 150 ° 0,6 °C 24,6 °C
06.09.2026 18:21 25,2 °C 20 % 1015,9 hPa 0,0 l/m² 3,0 km/h (1 Bft) O-SO 120 ° 0,6 °C 25,2 °C
06.09.2026 18:19 25,2 °C 20 % 1015,9 hPa 0,0 l/m² 3,1 km/h (1 Bft) SO 125 ° 0,6 °C 25,2 °C
06.09.2026 18:17 25,2 °C 20 % 1015,9 hPa 0,0 l/m² 5,2 km/h (1 Bft) SO 125 ° 0,6 °C 25,2 °C
06.09.2026 18:15 25,2 °C 20 % 1015,9 hPa 0,0 l/m² 5,2 km/h (1 Bft) SO 125 ° 0,6 °C 25,2 °C
06.09.2026 18:13 25,2 °C 20 % 1015,9 hPa 0,0 l/m² 0,7 km/h (0 Bft) NO±67.5° 35 ° 0,6 °C 25,2 °C
06.09.2026 18:11 25,3 °C 20 % 1015,9 hPa 0,0 l/m² 0,3 km/h (0 Bft) N 10 ° 0,7 °C 25,3 °C
06.09.2026 18:09 25,3 °C 20 % 1015,9 hPa 0,0 l/m² 0,3 km/h (0 Bft) N 10 ° 0,7 °C 25,3 °C
06.09.2026 18:07 25,4 °C 20 % 1015,9 hPa 0,0 l/m² 0,1 km/h (0 Bft) N 10 ° 0,8 °C 25,4 °C
06.09.2026 18:05 25,4 °C 20 % 1015,9 hPa 0,0 l/m² 4,0 km/h (1 Bft) N 5 ° 0,8 °C 25,4 °C
06.09.2026 18:03 25,4 °C 20 % 1015,9 hPa 0,0 l/m² 7,9 km/h (2 Bft) O-NO±67.5° 60 ° 0,8 °C 25,0 °C
06.09.2026 18:01 25,6 °C 20 % 1015,9 hPa 0,0 l/m² 7,9 km/h (2 Bft) O-NO±67.5° 60 ° 1,0 °C 25,3 °C
06.09.2026 17:58 25,6 °C 20 % 1015,9 hPa 0,0 l/m² 0,9 km/h (0 Bft) O±45° 80 ° 1,0 °C 25,6 °C
06.09.2026 17:56 25,6 °C 20 % 1015,9 hPa 0,0 l/m² 0,9 km/h (0 Bft) SO±22.5° 140 ° 1,0 °C 25,6 °C
06.09.2026 17:54 25,5 °C 20 % 1015,9 hPa 0,0 l/m² 5,9 km/h (2 Bft) S-SO±22.5° 150 ° 0,9 °C 25,5 °C
06.09.2026 17:52 25,5 °C 20 % 1015,9 hPa 0,0 l/m² 5,9 km/h (2 Bft) S-SO±22.5° 150 ° 0,9 °C 25,5 °C
06.09.2026 17:50 25,5 °C 20 % 1016,9 hPa 0,0 l/m² 1,2 km/h (1 Bft) SO 135 ° 0,9 °C 25,5 °C
06.09.2026 17:48 25,5 °C 20 % 1016,9 hPa 0,0 l/m² 0,4 km/h (0 Bft) SO 135 ° 0,9 °C 25,5 °C
06.09.2026 17:46 25,5 °C 20 % 1016,9 hPa 0,0 l/m² 0,4 km/h (0 Bft) SO 135 ° 0,9 °C 25,5 °C
_ Min-Zeit 07:43 13:13 17:56 - 00:00 - - 13:13 07:43
Minimum _ 12,5 °C 20 % 1015,9 hPa - 0,0 km/h (0 Bft) - - -1,1 °C 12,5 °C
_ Max-Zeit 15:35 07:45 08:14 00:00 13:46 - - 09:34 15:35
Maximum _ 25,8 °C 75 % 1021,5 hPa 0,0 l/m² 10,8 km/h
SO (2 Bft)
- - 9,0 °C 25,8 °C
Durchschnitt _ 19,0 °C 44 % 1019,2 hPa #0,0 l/m² 1,9 km/h (1 Bft) SO - 4,7 °C 19,0 °C